Time;durP1;ratioP1;P1;durP2;ratioP2;P2;SDS_P1;SDS_P2;PMS_P1;PMS_P2;Temp;Humidity;BMP_temperature;BMP_pressure;BME280_temperature;BME280_humidity;BME280_pressure;Samples;Min_cycle;Max_cycle;Signal;HPM_P1;HPM_P2
2023/05/27 00:01:31;;;;;;;12.52;7.63;;;;;;;19.46;78.14;100510.47;5012434;28;20030;-85
2023/05/27 00:03:56;;;;;;;15.02;7.38;;;;;;;19.47;77.98;100506.72;5011281;28;20032;-86
2023/05/27 00:06:22;;;;;;;12.52;6.68;;;;;;;19.51;77.93;100511.59;5025620;28;20030;-86
2023/05/27 00:08:47;;;;;;;10.73;6.82;;;;;;;19.44;77.33;100502.50;5010136;28;20030;-85
2023/05/27 00:11:13;;;;;;;18.85;8.07;;;;;;;19.48;77.65;100509.25;5011324;28;20029;-84
2023/05/27 00:13:38;;;;;;;18.83;7.60;;;;;;;19.58;77.77;100528.09;5009956;28;20018;-87
2023/05/27 00:16:04;;;;;;;12.05;6.75;;;;;;;19.61;77.32;100519.53;5010091;28;20030;-85
2023/05/27 00:18:32;;;;;;;9.45;6.80;;;;;;;19.52;77.16;100520.63;5010622;28;20022;-84
2023/05/27 00:20:58;;;;;;;19.13;7.85;;;;;;;19.41;77.76;100508.31;5026078;28;20072;-85
2023/05/27 00:23:24;;;;;;;21.02;7.95;;;;;;;19.44;77.74;100513.41;5011342;28;20088;-84
2023/05/27 00:25:49;;;;;;;23.77;8.70;;;;;;;19.46;77.77;100510.47;5018103;28;20033;-85
2023/05/27 00:28:15;;;;;;;13.18;8.02;;;;;;;19.51;77.76;100508.03;5044095;28;20029;-86
2023/05/27 00:30:41;;;;;;;18.52;7.65;;;;;;;19.48;77.87;100506.53;5039267;28;20036;-85
2023/05/27 00:33:06;;;;;;;15.25;8.80;;;;;;;19.50;77.97;100511.81;5045269;28;20038;-86
2023/05/27 00:35:32;;;;;;;13.65;9.25;;;;;;;19.43;77.71;100500.78;5029818;28;20502;-86
2023/05/27 00:37:57;;;;;;;13.93;8.70;;;;;;;19.46;77.94;100502.28;5029888;28;20568;-86
2023/05/27 00:40:24;;;;;;;13.75;8.95;;;;;;;19.38;77.73;100497.75;5028405;28;20509;-85
2023/05/27 00:42:50;;;;;;;18.50;7.53;;;;;;;19.36;77.78;100499.78;5015053;28;20033;-85
2023/05/27 00:45:15;;;;;;;23.13;8.38;;;;;;;19.35;78.04;100500.84;5010060;28;20037;-85
2023/05/27 00:47:41;;;;;;;16.90;8.10;;;;;;;19.42;78.10;100510.00;5009345;28;20073;-84
2023/05/27 00:50:10;;;;;;;16.55;8.35;;;;;;;19.31;77.69;100498.66;5009630;28;20072;-84
2023/05/27 00:52:35;;;;;;;18.27;7.85;;;;;;;19.25;77.75;100480.28;5009875;28;20038;-84
2023/05/27 00:55:01;;;;;;;15.80;7.45;;;;;;;19.36;77.22;100486.16;5009525;28;20026;-85
2023/05/27 00:57:27;;;;;;;10.55;7.35;;;;;;;19.33;77.23;100482.94;5019928;28;20099;-85
2023/05/27 00:59:52;;;;;;;13.43;7.45;;;;;;;19.30;76.98;100462.34;5030321;28;20481;-85
2023/05/27 01:02:18;;;;;;;13.30;7.25;;;;;;;19.28;77.01;100463.56;5030377;28;20041;-86
2023/05/27 01:04:46;;;;;;;13.45;6.20;;;;;;;19.32;77.15;100471.19;5032297;28;20240;-87
2023/05/27 01:07:16;;;;;;;9.65;6.80;;;;;;;19.30;76.97;100475.13;5032283;28;20064;-87
2023/05/27 01:09:51;;;;;;;10.90;6.93;;;;;;;19.24;77.08;100456.78;5048545;28;20080;-87
2023/05/27 01:12:54;;;;;;;19.45;8.18;;;;;;;19.22;77.59;100464.31;5048861;28;20686;-86
2023/05/27 01:15:21;;;;;;;14.05;7.70;;;;;;;19.21;77.66;100473.50;5034146;28;20022;-85
2023/05/27 01:17:50;;;;;;;16.30;7.15;;;;;;;19.25;77.38;100469.38;5035130;28;20032;-84
2023/05/27 01:20:17;;;;;;;20.77;8.90;;;;;;;19.18;77.41;100463.81;5032623;28;20021;-85
2023/05/27 01:22:43;;;;;;;12.20;7.53;;;;;;;19.20;77.63;100472.69;5039114;28;20094;-87
2023/05/27 01:25:10;;;;;;;8.45;6.50;;;;;;;19.10;77.46;100450.28;5048690;28;20025;-86
2023/05/27 01:27:35;;;;;;;14.48;7.15;;;;;;;19.22;77.17;100469.75;5040182;28;20120;-87
2023/05/27 01:30:03;;;;;;;14.02;6.90;;;;;;;19.17;77.00;100456.69;5035084;28;20088;-86
2023/05/27 01:32:41;;;;;;;13.27;7.25;;;;;;;19.13;76.88;100460.81;5034299;28;20029;-85
2023/05/27 01:35:21;;;;;;;11.88;7.10;;;;;;;19.09;77.17;100459.47;5032840;28;20061;-86
2023/05/27 01:37:50;;;;;;;13.10;6.95;;;;;;;18.95;77.44;100452.09;5031297;28;20420;-84
2023/05/27 01:40:17;;;;;;;20.48;8.20;;;;;;;18.87;77.55;100453.00;5031241;28;20025;-85
2023/05/27 01:42:44;;;;;;;12.57;7.10;;;;;;;18.83;77.94;100464.47;5032598;28;20053;-85
2023/05/27 01:45:11;;;;;;;12.68;6.97;;;;;;;18.75;78.10;100459.06;5047365;28;20510;-86
2023/05/27 01:47:36;;;;;;;15.57;6.90;;;;;;;18.67;78.23;100448.22;5032379;28;20049;-85
2023/05/27 01:50:03;;;;;;;16.75;7.70;;;;;;;18.59;78.47;100461.91;5047472;28;20459;-85
2023/05/27 01:52:28;;;;;;;8.02;6.60;;;;;;;18.51;78.63;100448.34;5032007;28;20033;-86
2023/05/27 01:54:54;;;;;;;13.45;7.35;;;;;;;18.53;78.91;100449.03;5032044;28;20393;-85
2023/05/27 01:57:20;;;;;;;13.85;6.68;;;;;;;18.49;79.10;100445.81;5031375;28;20025;-85
2023/05/27 01:59:45;;;;;;;13.88;7.22;;;;;;;18.44;79.60;100443.56;5032129;28;20029;-85
2023/05/27 02:02:11;;;;;;;13.50;7.15;;;;;;;18.48;79.97;100439.47;5035688;28;20075;-86
2023/05/27 02:04:36;;;;;;;14.18;7.30;;;;;;;18.53;79.81;100435.41;5045087;28;20021;-84
2023/05/27 02:07:03;;;;;;;10.73;6.63;;;;;;;18.58;80.03;100439.28;5032614;28;20033;-85
2023/05/27 02:09:28;;;;;;;13.20;7.32;;;;;;;18.56;79.28;100419.53;5034197;28;20513;-85
2023/05/27 02:11:54;;;;;;;8.57;6.55;;;;;;;18.66;78.97;100438.34;5032418;28;20026;-85
2023/05/27 02:14:19;;;;;;;22.08;8.52;;;;;;;18.70;78.88;100442.41;5033700;28;20064;-83
2023/05/27 02:16:45;;;;;;;15.25;6.72;;;;;;;18.74;78.64;100446.50;5033061;28;20021;-85
2023/05/27 02:19:10;;;;;;;21.85;6.72;;;;;;;18.60;78.74;100434.47;5033619;28;20037;-86
2023/05/27 02:21:35;;;;;;;11.43;6.13;;;;;;;18.62;78.59;100423.44;5044982;28;20081;-84
2023/05/27 02:24:04;;;;;;;15.05;6.80;;;;;;;18.78;78.62;100445.91;5045137;28;20025;-85
2023/05/27 02:26:30;;;;;;;18.13;7.55;;;;;;;18.80;78.42;100448.47;5035822;28;20025;-85
2023/05/27 02:28:55;;;;;;;10.35;7.03;;;;;;;18.80;78.09;100440.31;5031108;28;20030;-84
2023/05/27 02:31:21;;;;;;;11.30;6.68;;;;;;;18.85;77.95;100446.03;5012857;28;20030;-85
2023/05/27 02:33:47;;;;;;;13.80;7.25;;;;;;;18.79;78.00;100435.88;5014059;28;20026;-84
2023/05/27 02:36:12;;;;;;;13.88;6.55;;;;;;;18.85;77.55;100440.59;5031419;28;20042;-85
2023/05/27 02:38:38;;;;;;;11.45;7.20;;;;;;;18.87;77.94;100457.59;5037061;28;20044;-86
2023/05/27 02:41:03;;;;;;;11.10;6.80;;;;;;;18.85;77.74;100459.69;5036486;28;20056;-85
2023/05/27 02:43:29;;;;;;;17.15;7.40;;;;;;;18.77;77.83;100457.88;5022556;28;20026;-85
2023/05/27 02:45:54;;;;;;;10.75;7.20;;;;;;;18.84;78.02;100461.53;5033000;28;20061;-86
2023/05/27 02:48:20;;;;;;;9.18;7.20;;;;;;;18.85;78.32;100451.50;5035303;28;20043;-85
2023/05/27 02:50:45;;;;;;;21.65;7.20;;;;;;;18.79;78.15;100460.41;5032577;28;20104;-84
2023/05/27 02:53:11;;;;;;;10.98;6.57;;;;;;;18.87;78.12;100468.50;5031785;28;20026;-84
2023/05/27 02:55:36;;;;;;;20.02;6.85;;;;;;;18.76;77.88;100433.53;5031183;28;20025;-85
2023/05/27 02:58:04;;;;;;;12.65;6.90;;;;;;;18.89;77.50;100450.13;5031034;28;20412;-84
2023/05/27 03:00:30;;;;;;;8.30;6.60;;;;;;;18.86;77.27;100447.75;5031181;28;20029;-86
2023/05/27 03:02:55;;;;;;;12.25;6.32;;;;;;;18.86;77.67;100445.88;5031205;28;20033;-86
2023/05/27 03:05:21;;;;;;;11.23;6.55;;;;;;;18.98;77.22;100449.88;5031204;28;20083;-87
2023/05/27 03:07:46;;;;;;;12.90;6.35;;;;;;;19.05;76.99;100452.69;5031518;28;20029;-86
2023/05/27 03:10:12;;;;;;;14.30;6.72;;;;;;;19.07;76.96;100441.59;5031715;28;20074;-85
2023/05/27 03:12:37;;;;;;;21.65;6.70;;;;;;;19.20;76.87;100458.19;5032776;28;20030;-85
2023/05/27 03:15:03;;;;;;;11.05;5.75;;;;;;;19.22;76.07;100448.78;5031995;28;20032;-85
2023/05/27 03:17:29;;;;;;;9.77;5.35;;;;;;;19.24;76.08;100449.44;5043406;28;20037;-86
2023/05/27 03:19:54;;;;;;;10.88;6.13;;;;;;;19.24;75.49;100449.44;5049405;28;20026;-86
2023/05/27 03:22:20;;;;;;;10.90;6.82;;;;;;;19.23;75.02;100449.66;5035904;28;20374;-85
2023/05/27 03:24:46;;;;;;;12.45;6.65;;;;;;;19.35;74.77;100459.94;5030278;28;20397;-86
2023/05/27 03:27:11;;;;;;;13.02;6.00;;;;;;;19.35;75.01;100459.06;5030193;28;20032;-85
2023/05/27 03:29:37;;;;;;;14.23;6.55;;;;;;;19.26;74.50;100450.13;5030350;28;20071;-87
2023/05/27 03:32:02;;;;;;;9.20;5.80;;;;;;;19.28;74.12;100464.41;5030777;28;20104;-86
2023/05/27 03:34:28;;;;;;;10.80;5.75;;;;;;;19.30;74.23;100465.06;5030409;28;20053;-87
2023/05/27 03:36:53;;;;;;;17.25;8.32;;;;;;;19.32;74.17;100471.19;5030088;28;20492;-86
2023/05/27 03:39:19;;;;;;;20.27;7.70;;;;;;;19.22;74.39;100448.78;5030936;28;20026;-86
2023/05/27 03:41:44;;;;;;;7.93;5.43;;;;;;;19.33;73.35;100469.28;5030624;28;20081;-85
2023/05/27 03:44:10;;;;;;;19.17;6.82;;;;;;;19.27;73.65;100454.53;5030408;28;20030;-87
2023/05/27 03:46:35;;;;;;;11.15;5.30;;;;;;;19.40;73.40;100473.88;5031300;28;20046;-87
2023/05/27 03:49:02;;;;;;;8.50;5.68;;;;;;;19.29;73.14;100452.50;5030884;28;20100;-87
2023/05/27 03:51:27;;;;;;;15.07;5.82;;;;;;;19.41;73.41;100485.63;5046064;28;20072;-87
2023/05/27 03:53:53;;;;;;;9.60;5.97;;;;;;;19.46;73.64;100484.03;5045751;28;20025;-87
2023/05/27 03:56:18;;;;;;;10.15;6.18;;;;;;;19.54;72.93;100489.41;5031080;28;20037;-86
2023/05/27 03:58:44;;;;;;;19.98;7.32;;;;;;;19.63;72.57;100483.88;5029832;28;20025;-86
2023/05/27 04:01:11;;;;;;;13.25;5.70;;;;;;;19.66;72.58;100470.72;5030808;28;20033;-86
2023/05/27 04:03:37;;;;;;;17.25;6.00;;;;;;;19.75;71.76;100466.00;5030484;28;20144;-84
2023/05/27 04:06:03;;;;;;;17.15;4.70;;;;;;;19.92;71.45;100478.44;5030505;28;20033;-85
2023/05/27 04:08:28;;;;;;;10.43;6.05;;;;;;;19.95;71.29;100478.06;5031491;28;20033;-84
2023/05/27 04:10:57;;;;;;;36.75;6.05;;;;;;;20.04;71.27;100487.84;5047467;28;20048;-83
2023/05/27 04:13:22;;;;;;;8.07;5.82;;;;;;;20.06;70.67;100466.63;5032955;28;20065;-83
2023/05/27 04:15:48;;;;;;;17.52;5.28;;;;;;;20.20;70.32;100482.19;5031693;28;20026;-85
2023/05/27 04:18:14;;;;;;;13.93;5.18;;;;;;;20.10;69.95;100471.53;5022159;28;20044;-83
2023/05/27 04:20:42;;;;;;;9.25;5.70;;;;;;;20.10;70.43;100466.09;5010483;28;20103;-85
2023/05/27 04:23:09;;;;;;;10.40;5.78;;;;;;;20.16;70.26;100464.47;5010326;28;20054;-80
2023/05/27 04:25:34;;;;;;;9.95;6.40;;;;;;;20.19;69.93;100475.00;5010063;28;20136;-82
2023/05/27 04:28:03;;;;;;;17.58;5.97;;;;;;;20.08;70.24;100473.63;5009738;28;20026;-83
2023/05/27 04:30:30;;;;;;;13.07;5.63;;;;;;;20.20;70.38;100486.78;5018907;28;20496;-84
2023/05/27 04:32:55;;;;;;;12.95;6.28;;;;;;;20.19;70.66;100485.09;5012563;28;20404;-82
2023/05/27 04:35:21;;;;;;;14.30;5.88;;;;;;;20.27;70.59;100482.31;5009611;28;20037;-82
2023/05/27 04:37:47;;;;;;;24.48;6.05;;;;;;;20.38;70.47;100485.38;5009667;28;20109;-81
2023/05/27 04:40:13;;;;;;;20.27;5.57;;;;;;;20.41;70.05;100460.41;5012618;28;20109;-82
2023/05/27 04:42:39;;;;;;;8.50;4.97;;;;;;;20.52;69.71;100470.81;5013827;28;20026;-83
2023/05/27 04:45:06;;;;;;;8.40;5.30;;;;;;;20.52;69.27;100462.63;5013973;28;20382;-82
2023/05/27 04:47:32;;;;;;;14.23;5.63;;;;;;;20.62;69.15;100481.44;5027715;28;20080;-80
2023/05/27 04:50:00;;;;;;;10.20;5.47;;;;;;;20.75;69.00;100475.28;5033430;28;20489;-81
2023/05/27 04:52:28;;;;;;;11.98;6.20;;;;;;;20.86;68.81;100497.47;5034465;28;20523;-91
2023/05/27 04:54:57;;;;;;;13.48;6.47;;;;;;;20.86;68.70;100480.22;5051941;28;20033;-80
2023/05/27 04:57:22;;;;;;;16.85;6.70;;;;;;;20.86;68.45;100474.75;5023167;28;20092;-86
2023/05/27 05:02:34;;;;;;;19.60;5.57;;;;;;;21.06;69.74;100484.88;5021616;28;20041;-82
2023/05/27 05:05:12;;;;;;;16.58;5.97;;;;;;;21.24;69.96;100508.19;5024965;28;20042;-80
2023/05/27 05:07:40;;;;;;;13.25;7.32;;;;;;;21.24;69.31;100511.78;5030300;28;20045;-83
2023/05/27 05:10:15;;;;;;;18.75;6.50;;;;;;;21.24;69.41;100497.25;5016778;28;20042;-80
2023/05/27 05:12:41;;;;;;;25.42;6.32;;;;;;;21.40;68.08;100522.47;5016243;28;20118;-81
2023/05/27 05:15:08;;;;;;;11.75;5.88;;;;;;;21.43;67.71;100511.13;5014278;28;20120;-79
2023/05/27 05:17:33;;;;;;;18.00;6.35;;;;;;;21.59;67.99;100524.50;5031578;28;20044;-82
2023/05/27 05:19:59;;;;;;;20.77;8.25;;;;;;;21.72;67.45;100518.28;5012682;28;20045;-82
2023/05/27 05:22:26;;;;;;;15.82;6.00;;;;;;;21.76;66.87;100522.31;5009610;28;20034;-84
2023/05/27 05:24:51;;;;;;;22.42;6.85;;;;;;;21.90;65.86;100526.00;5010186;28;20069;-77
2023/05/27 05:27:18;;;;;;;16.48;6.00;;;;;;;21.94;65.77;100538.25;5011755;28;20100;-85
2023/05/27 05:29:44;;;;;;;13.25;6.60;;;;;;;21.76;65.98;100510.50;5011397;28;20054;-84
2023/05/27 05:32:13;;;;;;;11.07;6.20;;;;;;;21.79;66.34;100526.53;5010612;28;20518;-86
2023/05/27 05:34:39;;;;;;;17.55;5.95;;;;;;;21.86;66.17;100532.91;5010626;28;20061;-82
2023/05/27 05:37:05;;;;;;;13.77;6.95;;;;;;;21.70;65.99;100521.22;5009308;28;20029;-86
2023/05/27 05:39:30;;;;;;;13.60;6.63;;;;;;;21.84;66.15;100548.69;5010426;28;20348;-87
2023/05/27 05:41:57;;;;;;;11.82;5.65;;;;;;;21.67;66.33;100502.47;5011324;28;20030;-84
2023/05/27 05:44:23;;;;;;;10.02;6.18;;;;;;;21.96;66.39;100536.16;5011676;28;20034;-79
2023/05/27 05:46:49;;;;;;;20.83;7.07;;;;;;;21.92;65.59;100521.19;5014085;28;20147;-85
2023/05/27 05:49:15;;;;;;;17.35;6.22;;;;;;;22.02;65.51;100535.34;5015097;28;20033;-85
2023/05/27 05:51:40;;;;;;;17.17;6.50;;;;;;;22.03;65.63;100539.78;5011655;28;20045;-84
2023/05/27 05:54:05;;;;;;;16.80;6.75;;;;;;;22.02;65.35;100530.72;5011731;28;20026;-86
2023/05/27 05:56:32;;;;;;;18.35;7.35;;;;;;;22.10;65.40;100543.44;5010782;28;20117;-81
2023/05/27 05:58:57;;;;;;;20.33;8.07;;;;;;;22.06;65.50;100525.69;5011717;28;20030;-84
2023/05/27 06:01:23;;;;;;;21.13;6.72;;;;;;;22.12;65.45;100530.38;5014343;28;20088;-83
2023/05/27 06:03:48;;;;;;;29.50;7.40;;;;;;;22.21;65.61;100530.00;5014731;28;20030;-80
2023/05/27 06:06:14;;;;;;;32.83;6.93;;;;;;;22.32;65.54;100542.31;5012734;28;20026;-82
2023/05/27 06:08:40;;;;;;;27.60;6.95;;;;;;;22.38;64.90;100532.41;5016406;28;20327;-83
2023/05/27 06:11:06;;;;;;;67.85;9.15;;;;;;;22.36;64.66;100527.13;5014214;28;20026;-81
2023/05/27 06:13:31;;;;;;;45.47;9.88;;;;;;;22.33;65.20;100526.66;5012908;28;20026;-84
2023/05/27 06:15:57;;;;;;;21.92;7.45;;;;;;;22.41;64.65;100532.00;5010969;28;20026;-84
2023/05/27 06:18:22;;;;;;;18.75;8.20;;;;;;;22.41;64.32;100535.59;5010715;28;20026;-84
2023/05/27 06:20:48;;;;;;;23.02;7.20;;;;;;;22.45;64.41;100542.34;5011386;28;20037;-83
2023/05/27 06:23:13;;;;;;;19.90;8.90;;;;;;;22.41;64.33;100541.06;5011244;28;20030;-81
2023/05/27 06:25:39;;;;;;;16.25;6.65;;;;;;;22.38;64.71;100549.72;5011634;28;20034;-80
2023/05/27 06:28:05;;;;;;;13.43;6.78;;;;;;;22.37;64.54;100552.63;5011501;28;20038;-83
2023/05/27 06:30:32;;;;;;;23.45;7.07;;;;;;;22.32;64.68;100553.25;5011034;28;20022;-84
2023/05/27 06:32:58;;;;;;;18.50;7.72;;;;;;;22.19;65.25;100534.00;5011951;28;20060;-88
2023/05/27 06:35:23;;;;;;;35.28;8.35;;;;;;;22.24;65.40;100550.66;4996503;28;20027;-81
2023/05/27 06:37:49;;;;;;;27.55;7.55;;;;;;;22.25;65.58;100546.88;5011869;28;20533;-81
2023/05/27 06:40:15;;;;;;;18.85;7.88;;;;;;;22.23;65.64;100544.34;5025724;28;20045;-80
2023/05/27 06:42:40;;;;;;;17.23;7.68;;;;;;;22.35;65.59;100558.34;5010711;28;20405;-85
2023/05/27 06:45:06;;;;;;;32.08;8.95;;;;;;;22.22;65.27;100530.84;5009121;28;20042;-79
2023/05/27 06:47:32;;;;;;;70.53;11.82;;;;;;;22.42;65.48;100550.97;5013151;28;20046;-80
2023/05/27 06:49:57;;;;;;;37.83;10.57;;;;;;;22.24;65.59;100512.31;5012935;28;20026;-81
2023/05/27 06:52:23;;;;;;;24.23;8.82;;;;;;;22.33;65.34;100515.72;5013375;28;20026;-81
2023/05/27 06:54:49;;;;;;;22.73;8.98;;;;;;;22.50;65.48;100550.81;5013918;28;20064;-83
2023/05/27 06:57:14;;;;;;;29.00;8.50;;;;;;;22.47;64.68;100529.28;5015314;28;20036;-82
2023/05/27 06:59:40;;;;;;;21.40;10.68;;;;;;;22.66;64.34;100542.25;5017825;28;20104;-81
2023/05/27 07:02:06;;;;;;;35.30;10.13;;;;;;;22.61;64.37;100531.03;5030571;28;20101;-82
2023/05/27 07:04:32;;;;;;;22.23;9.35;;;;;;;22.73;64.45;100551.34;5022245;28;20089;-86
2023/05/27 07:06:57;;;;;;;27.95;8.60;;;;;;;22.80;64.29;100540.41;5032057;28;20021;-80
2023/05/27 07:09:23;;;;;;;37.47;8.70;;;;;;;22.94;63.79;100552.25;5019918;28;20058;-86
2023/05/27 07:11:48;;;;;;;24.33;9.00;;;;;;;22.93;63.82;100550.59;5018760;28;20018;-83
2023/05/27 07:14:14;;;;;;;19.95;8.68;;;;;;;23.00;63.69;100563.25;5013774;28;20521;-84
2023/05/27 07:16:40;;;;;;;23.65;8.18;;;;;;;22.87;63.86;100534.94;5046885;28;20476;-90
2023/05/27 07:19:05;;;;;;;36.17;10.20;;;;;;;23.06;64.02;100556.94;5028010;28;20034;-88
2023/05/27 07:21:31;;;;;;;17.25;8.70;;;;;;;23.17;63.60;100552.75;5031205;28;20025;-93
2023/05/27 07:23:58;;;;;;;40.03;13.15;;;;;;;23.27;63.02;100558.69;5152509;23;20072;-93
2023/05/27 07:26:25;;;;;;;46.67;9.85;;;;;;;23.20;63.14;100564.16;5021259;28;20068;-86
2023/05/27 07:28:51;;;;;;;20.88;10.02;;;;;;;23.42;62.62;100561.25;5014551;28;20033;-87
2023/05/27 07:31:17;;;;;;;33.63;8.30;;;;;;;23.46;62.36;100557.03;5018746;28;20026;-81
2023/05/27 07:33:43;;;;;;;22.88;9.98;;;;;;;23.49;62.17;100551.09;5013831;28;20029;-89
2023/05/27 07:36:10;;;;;;;24.77;10.90;;;;;;;23.61;62.22;100550.28;5030464;28;20340;-93
2023/05/27 07:38:36;;;;;;;17.05;7.85;;;;;;;23.77;61.70;100555.34;5016971;28;20016;-93
2023/05/27 07:41:03;;;;;;;18.00;8.35;;;;;;;23.73;61.55;100547.72;5017229;28;20100;-91
2023/05/27 07:43:28;;;;;;;26.20;8.45;;;;;;;23.82;61.49;100528.06;5000801;28;20038;-85
2023/05/27 07:45:55;;;;;;;33.63;11.82;;;;;;;24.00;61.00;100540.31;5024731;28;20065;-83
2023/05/27 07:48:20;;;;;;;22.35;10.43;;;;;;;23.98;60.83;100526.78;5030303;28;20030;-90
2023/05/27 07:50:46;;;;;;;35.72;12.95;;;;;;;24.09;60.20;100531.66;5027993;28;20022;-85
2023/05/27 07:53:11;;;;;;;42.03;15.65;;;;;;;24.30;60.20;100544.31;5020724;28;20187;-90
2023/05/27 07:55:37;;;;;;;34.28;12.27;;;;;;;24.26;59.78;100532.03;5018923;28;20037;-87
2023/05/27 07:58:03;;;;;;;37.25;13.63;;;;;;;24.33;59.67;100538.38;5002617;28;20129;-91
2023/05/27 08:00:30;;;;;;;22.90;9.63;;;;;;;24.22;59.39;100519.78;5009238;28;20041;-93
2023/05/27 08:02:55;;;;;;;37.28;13.07;;;;;;;24.40;59.24;100528.22;5027074;28;20080;-89
2023/05/27 08:05:21;;;;;;;27.35;11.20;;;;;;;24.41;59.41;100512.53;5030753;28;20497;-88
2023/05/27 08:07:46;;;;;;;46.92;15.85;;;;;;;24.55;59.21;100534.28;5015131;28;20026;-95
2023/05/27 08:10:12;;;;;;;26.67;9.20;;;;;;;24.56;59.35;100527.69;5011791;28;20065;-88
2023/05/27 08:12:37;;;;;;;23.55;9.55;;;;;;;24.66;58.79;100544.59;5010373;28;20088;-85
2023/05/27 08:15:03;;;;;;;31.65;10.20;;;;;;;24.74;58.73;100533.31;5010166;28;20092;-89
2023/05/27 08:17:29;;;;;;;15.98;9.13;;;;;;;24.89;57.79;100533.91;5011380;28;20034;-89
2023/05/27 08:19:54;;;;;;;32.00;8.10;;;;;;;25.00;57.68;100542.53;5024758;28;20034;-92
2023/05/27 08:22:20;;;;;;;30.45;8.93;;;;;;;25.05;57.37;100523.44;5012650;28;20037;-87
2023/05/27 08:24:45;;;;;;;12.60;6.88;;;;;;;25.21;56.56;100525.66;5011339;28;20034;-93
2023/05/27 08:27:18;;;;;;;21.20;7.97;;;;;;;25.20;56.79;100529.47;5014440;28;20033;-92
2023/05/27 08:29:44;;;;;;;22.42;7.57;;;;;;;25.08;56.79;100521.09;5014528;28;20034;-86
2023/05/27 08:32:10;;;;;;;20.27;8.32;;;;;;;25.02;56.38;100516.47;5012786;28;20049;-83
2023/05/27 08:34:36;;;;;;;19.27;6.95;;;;;;;24.67;57.37;100529.78;5009935;28;20061;-87
2023/05/27 08:37:03;;;;;;;14.25;7.78;;;;;;;24.29;57.68;100510.47;5013175;28;20049;-88
2023/05/27 08:39:28;;;;;;;19.48;8.15;;;;;;;24.20;58.17;100530.16;5014551;28;20026;-89
2023/05/27 08:41:54;;;;;;;42.58;9.73;;;;;;;23.65;59.51;100529.59;5018091;28;20046;-88
2023/05/27 08:44:23;;;;;;;23.25;10.18;;;;;;;23.34;60.27;100537.56;5012404;28;20088;-89
2023/05/27 08:46:50;;;;;;;44.30;11.25;;;;;;;22.93;61.55;100507.53;5009047;28;20026;-80
2023/05/27 08:49:15;;;;;;;40.72;11.60;;;;;;;23.15;62.09;100532.88;5009330;28;20133;-81
2023/05/27 08:51:41;;;;;;;30.10;10.32;;;;;;;22.80;62.43;100501.16;5010784;28;20053;-81
2023/05/27 08:54:08;;;;;;;44.15;10.35;;;;;;;22.69;63.47;100517.16;4993308;28;20030;-81
2023/05/27 08:56:36;;;;;;;28.35;11.23;;;;;;;22.57;64.14;100516.03;5009768;28;20030;-82
2023/05/27 08:59:01;;;;;;;19.35;9.45;;;;;;;22.38;64.68;100497.63;5013720;28;20037;-81
2023/05/27 09:01:27;;;;;;;39.50;10.65;;;;;;;22.32;65.56;100508.56;5009761;28;20018;-82
2023/05/27 09:03:55;;;;;;;15.70;9.43;;;;;;;22.28;65.53;100510.00;5008502;28;20492;-83
2023/05/27 09:06:20;;;;;;;32.13;9.98;;;;;;;22.17;65.71;100493.09;5009575;28;20444;-80
2023/05/27 09:08:46;;;;;;;29.10;12.02;;;;;;;22.32;65.17;100514.03;5008658;28;20038;-82
2023/05/27 09:11:30;;;;;;;28.98;12.48;;;;;;;22.25;65.70;100514.00;5006859;28;20022;-83
2023/05/27 09:13:56;;;;;;;29.50;10.43;;;;;;;22.19;66.37;100520.31;5009990;28;20040;-81
2023/05/27 09:16:22;;;;;;;39.90;11.30;;;;;;;21.99;66.79;100513.84;5008580;28;20133;-81
2023/05/27 09:18:49;;;;;;;29.65;9.70;;;;;;;21.71;67.73;100508.38;5009211;28;20121;-82
2023/05/27 09:21:15;;;;;;;75.15;16.88;;;;;;;21.66;69.76;100514.44;5009331;28;20129;-82
2023/05/27 09:23:40;;;;;;;44.50;13.05;;;;;;;21.51;73.02;100493.69;5013357;28;20117;-80
2023/05/27 09:26:11;;;;;;;31.25;13.93;;;;;;;21.57;73.68;100493.75;5016669;28;20045;-81
2023/05/27 09:28:37;;;;;;;42.13;17.20;;;;;;;21.63;74.57;100479.25;5012887;28;20100;-82
2023/05/27 09:31:06;;;;;;;30.58;14.38;;;;;;;21.73;74.41;100469.84;5012296;28;20068;-82
2023/05/27 09:33:34;;;;;;;30.02;14.40;;;;;;;21.53;75.88;100456.00;5011926;28;20085;-81
2023/05/27 09:36:01;;;;;;;25.38;14.07;;;;;;;21.37;77.41;100454.44;5012272;28;20033;-83
2023/05/27 09:38:36;;;;;;;37.13;13.45;;;;;;;21.65;79.11;100468.94;5012963;28;20034;-81
2023/05/27 09:41:02;;;;;;;26.17;11.60;;;;;;;21.82;79.14;100474.97;5012582;28;20030;-81
2023/05/27 09:43:29;;;;;;;38.13;13.25;;;;;;;21.94;78.17;100467.06;5013334;28;20030;-81
2023/05/27 09:46:10;;;;;;;29.58;13.13;;;;;;;22.20;77.44;100483.59;5013030;28;20079;-85
2023/05/27 09:48:37;;;;;;;41.03;13.98;;;;;;;22.18;76.60;100466.53;5018141;28;20064;-81
2023/05/27 09:51:03;;;;;;;38.80;16.15;;;;;;;22.26;76.55;100480.09;5014035;28;20029;-80
2023/05/27 09:53:30;;;;;;;53.20;18.95;;;;;;;22.09;76.60;100470.50;5016438;28;20108;-80
2023/05/27 09:55:57;;;;;;;37.13;22.38;;;;;;;21.94;77.82;100472.53;5018305;28;20030;-82
2023/05/27 09:58:24;;;;;;;70.90;19.15;;;;;;;21.56;79.86;100470.16;5027081;28;20080;-86
2023/05/27 10:00:50;;;;;;;55.00;19.73;;;;;;;21.23;83.00;100436.22;5013571;28;20022;-84
2023/05/27 10:03:20;;;;;;;55.28;26.83;;;;;;;21.17;85.51;100469.84;5013782;28;20034;-85
2023/05/27 10:05:48;;;;;;;120.65;71.20;;;;;;;20.82;87.51;100437.94;5015663;28;20449;-91
2023/05/27 10:08:13;;;;;;;47.78;24.52;;;;;;;20.66;90.07;100473.72;5014921;28;20038;-92
2023/05/27 10:10:40;;;;;;;42.15;21.77;;;;;;;20.64;91.22;100469.28;5012815;28;20040;-89
2023/05/27 10:13:06;;;;;;;44.63;22.63;;;;;;;20.64;92.72;100466.53;5013910;28;20037;-89
2023/05/27 10:15:33;;;;;;;33.60;21.48;;;;;;;20.34;95.68;100467.66;5013215;28;20389;-94
2023/05/27 10:18:06;;;;;;;37.97;21.15;;;;;;;20.15;97.33;100453.75;5015206;28;20030;-87
2023/05/27 10:20:37;;;;;;;29.48;18.90;;;;;;;20.28;97.57;100471.16;5091995;23;20053;-90
2023/05/27 10:23:20;;;;;;;42.90;22.85;;;;;;;20.22;96.67;100474.63;5039150;28;20076;-87
2023/05/27 10:25:50;;;;;;;28.15;20.42;;;;;;;20.08;97.79;100473.63;5042008;28;20049;-89
2023/05/27 10:28:29;;;;;;;53.90;21.58;;;;;;;20.02;99.14;100476.28;5036389;28;20022;-89
2023/05/27 10:31:17;;;;;;;34.95;23.95;;;;;;;19.97;100.00;100481.44;5033483;28;20091;-88
2023/05/27 10:33:45;;;;;;;49.40;25.23;;;;;;;19.89;100.00;100484.25;5032104;28;20033;-89
2023/05/27 10:36:21;;;;;;;31.77;21.17;;;;;;;19.70;100.00;100473.91;5016909;28;20129;-92
2023/05/27 10:39:00;;;;;;;32.03;21.88;;;;;;;19.74;100.00;100497.06;5038139;28;20022;-88
2023/05/27 10:41:26;;;;;;;33.47;23.50;;;;;;;19.80;100.00;100510.81;5035867;28;20113;-89
2023/05/27 10:43:57;;;;;;;35.03;21.05;;;;;;;19.66;100.00;100513.53;5037069;28;20057;-89
2023/05/27 10:46:22;;;;;;;32.92;19.20;;;;;;;19.42;100.00;100499.06;5040685;28;20036;-87
2023/05/27 10:48:48;;;;;;;30.98;20.13;;;;;;;19.34;100.00;100506.47;5038782;28;20025;-83
2023/05/27 10:51:13;;;;;;;32.45;22.58;;;;;;;19.43;100.00;100505.38;5042853;28;20053;-83
2023/05/27 10:53:39;;;;;;;34.28;21.60;;;;;;;19.57;100.00;100506.47;5048941;28;20029;-84
2023/05/27 10:56:05;;;;;;;27.50;20.92;;;;;;;19.62;100.00;100512.19;5024984;28;20033;-89
2023/05/27 10:58:36;;;;;;;37.92;22.88;;;;;;;19.77;100.00;100515.78;5041613;28;20032;-91
2023/05/27 11:01:13;;;;;;;37.90;24.55;;;;;;;19.89;100.00;100503.38;5038848;28;20025;-91
2023/05/27 11:03:45;;;;;;;36.80;22.52;;;;;;;19.98;100.00;100515.91;5029524;28;20132;-82
2023/05/27 11:06:13;;;;;;;36.58;24.00;;;;;;;20.04;100.00;100483.22;5033722;28;20079;-83
2023/05/27 11:08:38;;;;;;;31.00;23.88;;;;;;;20.19;100.00;100487.81;5033122;28;20036;-84
2023/05/27 11:11:14;;;;;;;34.72;25.67;;;;;;;20.46;99.81;100503.53;5034532;28;20021;-94
2023/05/27 11:13:45;;;;;;;32.83;22.35;;;;;;;20.51;99.34;100484.69;5041543;28;20124;-86
2023/05/27 11:16:12;;;;;;;32.13;24.73;;;;;;;20.62;98.64;100489.66;5033395;28;20101;-85